sensor_id;sensor_type;location;lat;lon;timestamp;pressure;altitude;pressure_sealevel;temperature;humidity
4836;BME280;66719;51.226;6.902;2024-01-11T00:01:48;102283.81;;;-1.37;100.00
4836;BME280;66719;51.226;6.902;2024-01-11T00:04:15;102284.22;;;-1.30;100.00
4836;BME280;66719;51.226;6.902;2024-01-11T00:06:43;102283.56;;;-1.26;100.00
4836;BME280;66719;51.226;6.902;2024-01-11T00:09:10;102281.81;;;-1.27;100.00
4836;BME280;66719;51.226;6.902;2024-01-11T00:11:36;102276.69;;;-1.27;100.00
4836;BME280;66719;51.226;6.902;2024-01-11T00:14:03;102287.34;;;-1.35;100.00
4836;BME280;66719;51.226;6.902;2024-01-11T00:16:30;102286.28;;;-1.39;100.00
4836;BME280;66719;51.226;6.902;2024-01-11T00:18:56;102282.50;;;-1.46;100.00
4836;BME280;66719;51.226;6.902;2024-01-11T00:21:23;102283.56;;;-1.57;100.00
4836;BME280;66719;51.226;6.902;2024-01-11T00:23:50;102286.94;;;-1.58;100.00
4836;BME280;66719;51.226;6.902;2024-01-11T00:26:16;102289.94;;;-1.50;100.00
4836;BME280;66719;51.226;6.902;2024-01-11T00:28:43;102289.22;;;-1.48;100.00
4836;BME280;66719;51.226;6.902;2024-01-11T00:31:10;102290.84;;;-1.33;100.00
4836;BME280;66719;51.226;6.902;2024-01-11T00:33:37;102288.66;;;-1.73;100.00
4836;BME280;66719;51.226;6.902;2024-01-11T00:36:04;102283.69;;;-1.70;100.00
4836;BME280;66719;51.226;6.902;2024-01-11T00:38:31;102292.44;;;-1.66;100.00
4836;BME280;66719;51.226;6.902;2024-01-11T00:40:57;102288.38;;;-1.78;100.00
4836;BME280;66719;51.226;6.902;2024-01-11T00:43:24;102294.13;;;-1.67;100.00
4836;BME280;66719;51.226;6.902;2024-01-11T00:45:50;102286.84;;;-1.74;100.00
4836;BME280;66719;51.226;6.902;2024-01-11T00:48:17;102274.56;;;-1.65;100.00
4836;BME280;66719;51.226;6.902;2024-01-11T00:50:44;102278.25;;;-1.60;100.00
4836;BME280;66719;51.226;6.902;2024-01-11T00:53:11;102278.38;;;-1.73;100.00
4836;BME280;66719;51.226;6.902;2024-01-11T00:55:40;102284.28;;;-1.74;100.00
4836;BME280;66719;51.226;6.902;2024-01-11T00:58:07;102274.31;;;-1.69;100.00
4836;BME280;66719;51.226;6.902;2024-01-11T01:00:33;102270.84;;;-1.70;100.00
4836;BME280;66719;51.226;6.902;2024-01-11T01:03:00;102275.03;;;-1.72;100.00
4836;BME280;66719;51.226;6.902;2024-01-11T01:05:27;102271.66;;;-1.71;100.00
4836;BME280;66719;51.226;6.902;2024-01-11T01:07:53;102279.00;;;-1.77;100.00
4836;BME280;66719;51.226;6.902;2024-01-11T01:10:20;102284.28;;;-1.74;100.00
4836;BME280;66719;51.226;6.902;2024-01-11T01:12:46;102279.34;;;-1.71;100.00
4836;BME280;66719;51.226;6.902;2024-01-11T01:15:13;102283.75;;;-1.68;100.00
4836;BME280;66719;51.226;6.902;2024-01-11T01:17:41;102275.34;;;-1.66;100.00
4836;BME280;66719;51.226;6.902;2024-01-11T01:20:08;102285.16;;;-1.59;100.00
4836;BME280;66719;51.226;6.902;2024-01-11T01:22:35;102286.31;;;-1.54;100.00
4836;BME280;66719;51.226;6.902;2024-01-11T01:25:01;102279.72;;;-1.65;100.00
4836;BME280;66719;51.226;6.902;2024-01-11T01:27:28;102275.72;;;-1.75;100.00
4836;BME280;66719;51.226;6.902;2024-01-11T01:29:55;102273.06;;;-1.76;100.00
4836;BME280;66719;51.226;6.902;2024-01-11T01:32:21;102276.94;;;-1.68;100.00
4836;BME280;66719;51.226;6.902;2024-01-11T01:34:48;102281.72;;;-1.74;100.00
4836;BME280;66719;51.226;6.902;2024-01-11T01:37:15;102277.22;;;-1.78;100.00
4836;BME280;66719;51.226;6.902;2024-01-11T01:39:42;102279.28;;;-1.87;100.00
4836;BME280;66719;51.226;6.902;2024-01-11T01:42:08;102282.09;;;-1.83;100.00
4836;BME280;66719;51.226;6.902;2024-01-11T01:44:35;102288.66;;;-2.03;100.00
4836;BME280;66719;51.226;6.902;2024-01-11T01:47:02;102291.22;;;-2.03;100.00
4836;BME280;66719;51.226;6.902;2024-01-11T01:49:30;102291.31;;;-2.16;100.00
4836;BME280;66719;51.226;6.902;2024-01-11T01:51:57;102291.03;;;-2.20;100.00
4836;BME280;66719;51.226;6.902;2024-01-11T01:54:24;102290.16;;;-2.21;100.00
4836;BME280;66719;51.226;6.902;2024-01-11T01:56:52;102293.09;;;-2.15;100.00
4836;BME280;66719;51.226;6.902;2024-01-11T01:59:20;102292.53;;;-2.24;100.00
4836;BME280;66719;51.226;6.902;2024-01-11T02:01:47;102291.91;;;-2.20;100.00
4836;BME280;66719;51.226;6.902;2024-01-11T02:04:14;102296.97;;;-2.21;100.00
4836;BME280;66719;51.226;6.902;2024-01-11T02:06:44;102295.91;;;-2.25;100.00
4836;BME280;66719;51.226;6.902;2024-01-11T02:09:11;102297.50;;;-2.12;100.00
4836;BME280;66719;51.226;6.902;2024-01-11T02:11:41;102296.16;;;-2.20;100.00
4836;BME280;66719;51.226;6.902;2024-01-11T02:14:09;102293.50;;;-2.22;100.00
4836;BME280;66719;51.226;6.902;2024-01-11T02:16:37;102299.00;;;-2.31;100.00
4836;BME280;66719;51.226;6.902;2024-01-11T02:19:11;102296.13;;;-2.35;100.00
4836;BME280;66719;51.226;6.902;2024-01-11T02:21:42;102295.78;;;-2.41;100.00
4836;BME280;66719;51.226;6.902;2024-01-11T02:24:09;102287.22;;;-2.42;100.00
4836;BME280;66719;51.226;6.902;2024-01-11T02:26:36;102292.06;;;-2.46;100.00
4836;BME280;66719;51.226;6.902;2024-01-11T02:29:02;102288.09;;;-2.41;100.00
4836;BME280;66719;51.226;6.902;2024-01-11T02:31:30;102293.81;;;-2.45;100.00
4836;BME280;66719;51.226;6.902;2024-01-11T02:33:57;102302.78;;;-2.39;100.00
4836;BME280;66719;51.226;6.902;2024-01-11T02:36:25;102299.25;;;-2.41;100.00
4836;BME280;66719;51.226;6.902;2024-01-11T02:38:51;102309.84;;;-2.49;100.00
4836;BME280;66719;51.226;6.902;2024-01-11T02:41:20;102302.47;;;-2.43;100.00
4836;BME280;66719;51.226;6.902;2024-01-11T02:43:47;102302.13;;;-2.49;100.00
4836;BME280;66719;51.226;6.902;2024-01-11T02:46:15;102300.47;;;-2.49;100.00
4836;BME280;66719;51.226;6.902;2024-01-11T02:48:42;102301.75;;;-2.56;100.00
4836;BME280;66719;51.226;6.902;2024-01-11T02:51:08;102302.72;;;-2.53;100.00
4836;BME280;66719;51.226;6.902;2024-01-11T02:53:35;102303.50;;;-2.41;100.00
4836;BME280;66719;51.226;6.902;2024-01-11T02:56:02;102297.81;;;-2.50;100.00
4836;BME280;66719;51.226;6.902;2024-01-11T02:58:29;102292.56;;;-2.67;100.00
4836;BME280;66719;51.226;6.902;2024-01-11T03:00:55;102296.88;;;-2.66;100.00
4836;BME280;66719;51.226;6.902;2024-01-11T03:03:22;102286.66;;;-2.79;100.00
4836;BME280;66719;51.226;6.902;2024-01-11T03:05:48;102283.94;;;-2.82;100.00
4836;BME280;66719;51.226;6.902;2024-01-11T03:08:15;102284.44;;;-2.88;100.00
4836;BME280;66719;51.226;6.902;2024-01-11T03:10:42;102284.63;;;-2.85;100.00
4836;BME280;66719;51.226;6.902;2024-01-11T03:13:09;102276.81;;;-3.01;100.00
4836;BME280;66719;51.226;6.902;2024-01-11T03:15:35;102285.28;;;-3.02;100.00
4836;BME280;66719;51.226;6.902;2024-01-11T03:18:02;102297.38;;;-2.99;100.00
4836;BME280;66719;51.226;6.902;2024-01-11T03:20:29;102287.09;;;-2.86;100.00
4836;BME280;66719;51.226;6.902;2024-01-11T03:22:56;102291.78;;;-2.79;100.00
4836;BME280;66719;51.226;6.902;2024-01-11T03:25:22;102287.59;;;-2.92;100.00
4836;BME280;66719;51.226;6.902;2024-01-11T03:27:49;102288.91;;;-2.98;100.00
4836;BME280;66719;51.226;6.902;2024-01-11T03:30:15;102302.59;;;-2.98;100.00
4836;BME280;66719;51.226;6.902;2024-01-11T03:32:43;102291.28;;;-2.73;100.00
4836;BME280;66719;51.226;6.902;2024-01-11T03:35:10;102296.66;;;-2.83;100.00
4836;BME280;66719;51.226;6.902;2024-01-11T03:37:36;102284.56;;;-2.86;100.00
4836;BME280;66719;51.226;6.902;2024-01-11T03:40:03;102290.66;;;-2.84;100.00
4836;BME280;66719;51.226;6.902;2024-01-11T03:42:30;102290.03;;;-2.80;100.00
4836;BME280;66719;51.226;6.902;2024-01-11T03:44:57;102288.50;;;-2.91;100.00
4836;BME280;66719;51.226;6.902;2024-01-11T03:47:23;102290.97;;;-2.93;100.00
4836;BME280;66719;51.226;6.902;2024-01-11T03:49:50;102303.13;;;-3.03;100.00
4836;BME280;66719;51.226;6.902;2024-01-11T03:52:17;102295.22;;;-2.93;100.00
4836;BME280;66719;51.226;6.902;2024-01-11T03:54:43;102295.94;;;-2.81;100.00
4836;BME280;66719;51.226;6.902;2024-01-11T03:57:10;102296.75;;;-2.82;100.00
4836;BME280;66719;51.226;6.902;2024-01-11T03:59:36;102303.94;;;-2.76;100.00
4836;BME280;66719;51.226;6.902;2024-01-11T04:02:03;102287.88;;;-2.87;100.00
4836;BME280;66719;51.226;6.902;2024-01-11T04:04:30;102287.28;;;-2.83;100.00
4836;BME280;66719;51.226;6.902;2024-01-11T04:06:56;102281.22;;;-2.98;100.00
4836;BME280;66719;51.226;6.902;2024-01-11T04:09:23;102300.13;;;-2.96;100.00
4836;BME280;66719;51.226;6.902;2024-01-11T04:11:49;102308.13;;;-3.05;100.00
4836;BME280;66719;51.226;6.902;2024-01-11T04:14:17;102301.31;;;-2.91;100.00
4836;BME280;66719;51.226;6.902;2024-01-11T04:16:44;102301.47;;;-2.88;100.00
4836;BME280;66719;51.226;6.902;2024-01-11T04:19:10;102305.81;;;-2.87;100.00
4836;BME280;66719;51.226;6.902;2024-01-11T04:21:37;102320.25;;;-3.02;100.00
4836;BME280;66719;51.226;6.902;2024-01-11T04:24:07;102321.97;;;-2.88;100.00
4836;BME280;66719;51.226;6.902;2024-01-11T04:26:34;102322.50;;;-2.94;100.00
4836;BME280;66719;51.226;6.902;2024-01-11T04:29:01;102319.06;;;-3.07;100.00
4836;BME280;66719;51.226;6.902;2024-01-11T04:31:27;102314.91;;;-2.92;100.00
4836;BME280;66719;51.226;6.902;2024-01-11T04:33:54;102328.03;;;-2.17;100.00
4836;BME280;66719;51.226;6.902;2024-01-11T04:36:21;102320.94;;;-2.21;100.00
4836;BME280;66719;51.226;6.902;2024-01-11T04:38:47;102325.50;;;-2.30;100.00
4836;BME280;66719;51.226;6.902;2024-01-11T04:41:15;102334.38;;;-2.53;100.00
4836;BME280;66719;51.226;6.902;2024-01-11T04:43:43;102338.28;;;-2.45;100.00
4836;BME280;66719;51.226;6.902;2024-01-11T04:46:20;102334.75;;;-2.47;100.00
4836;BME280;66719;51.226;6.902;2024-01-11T04:48:48;102330.34;;;-2.49;100.00
4836;BME280;66719;51.226;6.902;2024-01-11T04:51:18;102336.69;;;-2.58;100.00
4836;BME280;66719;51.226;6.902;2024-01-11T04:53:45;102328.19;;;-2.57;100.00
4836;BME280;66719;51.226;6.902;2024-01-11T04:56:14;102334.50;;;-2.51;100.00
4836;BME280;66719;51.226;6.902;2024-01-11T04:58:42;102340.28;;;-2.54;100.00
4836;BME280;66719;51.226;6.902;2024-01-11T05:01:16;102334.25;;;-2.41;100.00
4836;BME280;66719;51.226;6.902;2024-01-11T05:03:45;102331.38;;;-3.02;100.00
4836;BME280;66719;51.226;6.902;2024-01-11T05:06:19;102333.28;;;-3.13;100.00
4836;BME280;66719;51.226;6.902;2024-01-11T05:08:46;102339.78;;;-3.18;100.00
4836;BME280;66719;51.226;6.902;2024-01-11T05:11:21;102331.47;;;-3.14;100.00
4836;BME280;66719;51.226;6.902;2024-01-11T05:13:48;102326.19;;;-3.17;100.00
4836;BME280;66719;51.226;6.902;2024-01-11T05:16:28;102329.63;;;-3.16;100.00
4836;BME280;66719;51.226;6.902;2024-01-11T05:18:56;102333.75;;;-3.18;100.00
4836;BME280;66719;51.226;6.902;2024-01-11T05:21:23;102338.50;;;-3.24;100.00
4836;BME280;66719;51.226;6.902;2024-01-11T05:23:50;102345.09;;;-3.28;100.00
4836;BME280;66719;51.226;6.902;2024-01-11T05:26:18;102348.25;;;-3.32;100.00
4836;BME280;66719;51.226;6.902;2024-01-11T05:28:45;102347.66;;;-3.41;100.00
4836;BME280;66719;51.226;6.902;2024-01-11T05:31:15;102354.16;;;-3.33;100.00
4836;BME280;66719;51.226;6.902;2024-01-11T05:33:43;102339.38;;;-3.24;100.00
4836;BME280;66719;51.226;6.902;2024-01-11T05:36:10;102340.97;;;-3.26;100.00
4836;BME280;66719;51.226;6.902;2024-01-11T05:38:38;102354.16;;;-3.20;100.00
4836;BME280;66719;51.226;6.902;2024-01-11T05:41:06;102370.50;;;-3.18;100.00
4836;BME280;66719;51.226;6.902;2024-01-11T05:43:32;102354.94;;;-3.21;100.00
4836;BME280;66719;51.226;6.902;2024-01-11T05:45:59;102355.84;;;-3.20;100.00
4836;BME280;66719;51.226;6.902;2024-01-11T05:48:25;102359.84;;;-3.24;100.00
4836;BME280;66719;51.226;6.902;2024-01-11T05:50:52;102363.91;;;-3.27;100.00
4836;BME280;66719;51.226;6.902;2024-01-11T05:53:18;102372.38;;;-3.28;100.00
4836;BME280;66719;51.226;6.902;2024-01-11T05:55:47;102378.38;;;-3.28;100.00
4836;BME280;66719;51.226;6.902;2024-01-11T05:58:16;102383.97;;;-3.33;100.00
4836;BME280;66719;51.226;6.902;2024-01-11T06:00:42;102385.28;;;-3.27;100.00
4836;BME280;66719;51.226;6.902;2024-01-11T06:03:13;102390.22;;;-3.30;100.00
4836;BME280;66719;51.226;6.902;2024-01-11T06:05:40;102402.81;;;-3.20;100.00
4836;BME280;66719;51.226;6.902;2024-01-11T06:08:07;102396.88;;;-3.05;100.00
4836;BME280;66719;51.226;6.902;2024-01-11T06:10:34;102402.00;;;-3.19;100.00
4836;BME280;66719;51.226;6.902;2024-01-11T06:13:00;102403.38;;;-3.24;100.00
4836;BME280;66719;51.226;6.902;2024-01-11T06:15:27;102394.34;;;-3.19;100.00
4836;BME280;66719;51.226;6.902;2024-01-11T06:17:53;102390.41;;;-3.27;100.00
4836;BME280;66719;51.226;6.902;2024-01-11T06:20:21;102385.28;;;-3.27;100.00
4836;BME280;66719;51.226;6.902;2024-01-11T06:22:48;102399.94;;;-3.24;100.00
4836;BME280;66719;51.226;6.902;2024-01-11T06:25:14;102401.78;;;-3.22;100.00
4836;BME280;66719;51.226;6.902;2024-01-11T06:27:42;102388.25;;;-3.21;100.00
4836;BME280;66719;51.226;6.902;2024-01-11T06:30:10;102386.56;;;-3.20;100.00
4836;BME280;66719;51.226;6.902;2024-01-11T06:32:37;102381.63;;;-3.17;100.00
4836;BME280;66719;51.226;6.902;2024-01-11T06:35:04;102388.03;;;-3.24;100.00
4836;BME280;66719;51.226;6.902;2024-01-11T06:37:31;102397.47;;;-3.36;100.00
4836;BME280;66719;51.226;6.902;2024-01-11T06:39:58;102384.88;;;-3.33;100.00
4836;BME280;66719;51.226;6.902;2024-01-11T06:42:25;102387.03;;;-3.39;100.00
4836;BME280;66719;51.226;6.902;2024-01-11T06:44:52;102397.06;;;-3.42;100.00
4836;BME280;66719;51.226;6.902;2024-01-11T06:47:18;102384.56;;;-3.51;100.00
4836;BME280;66719;51.226;6.902;2024-01-11T06:49:45;102381.44;;;-3.47;100.00
4836;BME280;66719;51.226;6.902;2024-01-11T06:52:12;102375.81;;;-3.41;100.00
4836;BME280;66719;51.226;6.902;2024-01-11T06:54:39;102386.56;;;-3.47;100.00
4836;BME280;66719;51.226;6.902;2024-01-11T06:57:06;102401.69;;;-3.50;100.00
4836;BME280;66719;51.226;6.902;2024-01-11T06:59:32;102393.03;;;-3.52;100.00
4836;BME280;66719;51.226;6.902;2024-01-11T07:01:59;102400.53;;;-3.55;100.00
4836;BME280;66719;51.226;6.902;2024-01-11T07:04:25;102401.41;;;-3.54;100.00
4836;BME280;66719;51.226;6.902;2024-01-11T07:06:52;102400.53;;;-3.55;100.00
4836;BME280;66719;51.226;6.902;2024-01-11T07:09:19;102406.28;;;-3.71;100.00
4836;BME280;66719;51.226;6.902;2024-01-11T07:11:46;102418.22;;;-3.96;100.00
4836;BME280;66719;51.226;6.902;2024-01-11T07:14:13;102424.53;;;-3.91;100.00
4836;BME280;66719;51.226;6.902;2024-01-11T07:16:39;102420.00;;;-3.95;100.00
4836;BME280;66719;51.226;6.902;2024-01-11T07:19:06;102420.97;;;-3.93;100.00
4836;BME280;66719;51.226;6.902;2024-01-11T07:21:33;102420.41;;;-3.89;100.00
4836;BME280;66719;51.226;6.902;2024-01-11T07:23:59;102417.44;;;-3.95;100.00
4836;BME280;66719;51.226;6.902;2024-01-11T07:26:26;102421.13;;;-4.03;100.00
4836;BME280;66719;51.226;6.902;2024-01-11T07:28:53;102419.88;;;-3.96;100.00
4836;BME280;66719;51.226;6.902;2024-01-11T07:31:23;102430.28;;;-4.07;100.00
4836;BME280;66719;51.226;6.902;2024-01-11T07:33:49;102427.91;;;-4.04;100.00
4836;BME280;66719;51.226;6.902;2024-01-11T07:36:17;102429.50;;;-4.06;100.00
4836;BME280;66719;51.226;6.902;2024-01-11T07:38:43;102437.16;;;-4.06;100.00
4836;BME280;66719;51.226;6.902;2024-01-11T07:41:10;102446.41;;;-4.08;100.00
4836;BME280;66719;51.226;6.902;2024-01-11T07:43:38;102455.63;;;-4.10;100.00
4836;BME280;66719;51.226;6.902;2024-01-11T07:46:19;102454.81;;;-3.97;100.00
4836;BME280;66719;51.226;6.902;2024-01-11T07:48:58;102451.81;;;-4.03;100.00
4836;BME280;66719;51.226;6.902;2024-01-11T07:51:25;102461.63;;;-4.09;100.00
4836;BME280;66719;51.226;6.902;2024-01-11T07:53:53;102451.63;;;-4.06;100.00
4836;BME280;66719;51.226;6.902;2024-01-11T07:56:19;102450.25;;;-4.01;100.00
4836;BME280;66719;51.226;6.902;2024-01-11T07:58:46;102449.47;;;-4.00;100.00
4836;BME280;66719;51.226;6.902;2024-01-11T08:01:15;102452.72;;;-4.03;100.00
4836;BME280;66719;51.226;6.902;2024-01-11T08:03:42;102461.59;;;-3.97;100.00
4836;BME280;66719;51.226;6.902;2024-01-11T08:06:11;102442.31;;;-3.92;100.00
4836;BME280;66719;51.226;6.902;2024-01-11T08:08:39;102445.56;;;-3.95;100.00
4836;BME280;66719;51.226;6.902;2024-01-11T08:11:10;102446.25;;;-3.97;100.00
4836;BME280;66719;51.226;6.902;2024-01-11T08:13:39;102442.28;;;-4.06;100.00
4836;BME280;66719;51.226;6.902;2024-01-11T08:16:06;102441.06;;;-3.86;100.00
4836;BME280;66719;51.226;6.902;2024-01-11T08:18:36;102446.38;;;-3.83;100.00
4836;BME280;66719;51.226;6.902;2024-01-11T08:21:02;102443.47;;;-3.76;100.00
4836;BME280;66719;51.226;6.902;2024-01-11T08:23:33;102441.69;;;-3.77;100.00
4836;BME280;66719;51.226;6.902;2024-01-11T08:25:59;102443.53;;;-3.87;100.00
4836;BME280;66719;51.226;6.902;2024-01-11T08:28:26;102437.28;;;-3.66;100.00
4836;BME280;66719;51.226;6.902;2024-01-11T08:30:52;102442.56;;;-3.76;100.00
4836;BME280;66719;51.226;6.902;2024-01-11T08:33:19;102442.00;;;-3.72;100.00
4836;BME280;66719;51.226;6.902;2024-01-11T08:35:46;102443.78;;;-3.58;100.00
4836;BME280;66719;51.226;6.902;2024-01-11T08:38:13;102442.72;;;-3.61;100.00
4836;BME280;66719;51.226;6.902;2024-01-11T08:40:39;102439.09;;;-3.52;100.00
4836;BME280;66719;51.226;6.902;2024-01-11T08:43:06;102444.13;;;-3.40;100.00
4836;BME280;66719;51.226;6.902;2024-01-11T08:45:33;102450.63;;;-3.45;100.00
4836;BME280;66719;51.226;6.902;2024-01-11T08:47:59;102454.78;;;-3.34;100.00
4836;BME280;66719;51.226;6.902;2024-01-11T08:50:27;102457.25;;;-3.22;100.00
4836;BME280;66719;51.226;6.902;2024-01-11T08:52:55;102449.09;;;-3.17;100.00
4836;BME280;66719;51.226;6.902;2024-01-11T08:55:22;102452.84;;;-3.11;100.00
4836;BME280;66719;51.226;6.902;2024-01-11T08:57:49;102462.38;;;-3.09;100.00
4836;BME280;66719;51.226;6.902;2024-01-11T09:00:15;102465.94;;;-2.94;100.00
4836;BME280;66719;51.226;6.902;2024-01-11T09:02:44;102461.69;;;-2.80;100.00
4836;BME280;66719;51.226;6.902;2024-01-11T09:05:14;102462.88;;;-2.75;100.00
4836;BME280;66719;51.226;6.902;2024-01-11T09:07:41;102465.03;;;-2.68;100.00
4836;BME280;66719;51.226;6.902;2024-01-11T09:10:09;102469.38;;;-2.67;100.00
4836;BME280;66719;51.226;6.902;2024-01-11T09:12:37;102470.34;;;-2.65;100.00
4836;BME280;66719;51.226;6.902;2024-01-11T09:15:04;102467.88;;;-2.63;100.00
4836;BME280;66719;51.226;6.902;2024-01-11T09:17:31;102483.34;;;-2.62;100.00
4836;BME280;66719;51.226;6.902;2024-01-11T09:19:59;102485.03;;;-2.62;100.00
4836;BME280;66719;51.226;6.902;2024-01-11T09:22:25;102488.28;;;-2.51;100.00
4836;BME280;66719;51.226;6.902;2024-01-11T09:24:52;102490.63;;;-2.41;100.00
4836;BME280;66719;51.226;6.902;2024-01-11T09:27:18;102488.06;;;-2.41;100.00
4836;BME280;66719;51.226;6.902;2024-01-11T09:29:45;102484.31;;;-2.33;100.00
4836;BME280;66719;51.226;6.902;2024-01-11T09:32:12;102484.88;;;-2.24;100.00
4836;BME280;66719;51.226;6.902;2024-01-11T09:34:39;102484.84;;;-2.11;100.00
4836;BME280;66719;51.226;6.902;2024-01-11T09:37:06;102486.59;;;-2.10;100.00
4836;BME280;66719;51.226;6.902;2024-01-11T09:39:32;102479.69;;;-2.11;100.00
4836;BME280;66719;51.226;6.902;2024-01-11T09:42:06;102497.06;;;-2.07;100.00
4836;BME280;66719;51.226;6.902;2024-01-11T09:44:33;102506.44;;;-2.07;100.00
4836;BME280;66719;51.226;6.902;2024-01-11T09:47:01;102502.84;;;-1.96;100.00
4836;BME280;66719;51.226;6.902;2024-01-11T09:49:30;102499.56;;;-1.93;100.00
4836;BME280;66719;51.226;6.902;2024-01-11T09:51:57;102504.28;;;-1.86;100.00
4836;BME280;66719;51.226;6.902;2024-01-11T09:54:25;102494.09;;;-2.00;100.00
4836;BME280;66719;51.226;6.902;2024-01-11T09:56:53;102494.50;;;-1.79;100.00
4836;BME280;66719;51.226;6.902;2024-01-11T09:59:21;102491.50;;;-1.72;100.00
4836;BME280;66719;51.226;6.902;2024-01-11T10:01:51;102494.41;;;-1.65;100.00
4836;BME280;66719;51.226;6.902;2024-01-11T10:04:18;102497.44;;;-1.58;100.00
4836;BME280;66719;51.226;6.902;2024-01-11T10:06:45;102497.34;;;-1.59;100.00
4836;BME280;66719;51.226;6.902;2024-01-11T10:09:11;102499.41;;;-1.54;100.00
4836;BME280;66719;51.226;6.902;2024-01-11T10:11:39;102501.09;;;-1.54;100.00
4836;BME280;66719;51.226;6.902;2024-01-11T10:14:06;102499.16;;;-1.44;100.00
4836;BME280;66719;51.226;6.902;2024-01-11T10:16:33;102497.84;;;-1.37;100.00
4836;BME280;66719;51.226;6.902;2024-01-11T10:18:59;102497.22;;;-1.33;100.00
4836;BME280;66719;51.226;6.902;2024-01-11T10:21:27;102496.53;;;-1.30;100.00
4836;BME280;66719;51.226;6.902;2024-01-11T10:23:54;102496.53;;;-1.30;100.00
4836;BME280;66719;51.226;6.902;2024-01-11T10:26:20;102500.41;;;-1.22;100.00
4836;BME280;66719;51.226;6.902;2024-01-11T10:28:48;102498.63;;;-1.23;100.00
4836;BME280;66719;51.226;6.902;2024-01-11T10:31:14;102496.78;;;-1.11;100.00
4836;BME280;66719;51.226;6.902;2024-01-11T10:33:41;102501.22;;;-1.08;100.00
4836;BME280;66719;51.226;6.902;2024-01-11T10:36:09;102516.28;;;-1.00;100.00
4836;BME280;66719;51.226;6.902;2024-01-11T10:38:39;102522.38;;;-0.98;100.00
4836;BME280;66719;51.226;6.902;2024-01-11T10:41:06;102504.81;;;-0.90;100.00
4836;BME280;66719;51.226;6.902;2024-01-11T10:43:37;102500.75;;;-0.87;100.00
4836;BME280;66719;51.226;6.902;2024-01-11T10:46:04;102513.94;;;-0.80;100.00
4836;BME280;66719;51.226;6.902;2024-01-11T10:48:43;102509.97;;;-0.75;100.00
4836;BME280;66719;51.226;6.902;2024-01-11T10:51:12;102505.94;;;-0.70;100.00
4836;BME280;66719;51.226;6.902;2024-01-11T10:53:47;102519.00;;;-0.82;100.00
4836;BME280;66719;51.226;6.902;2024-01-11T10:56:15;102526.56;;;-0.85;100.00
4836;BME280;66719;51.226;6.902;2024-01-11T10:58:45;102526.09;;;-0.78;100.00
4836;BME280;66719;51.226;6.902;2024-01-11T11:01:13;102522.53;;;-0.65;100.00
4836;BME280;66719;51.226;6.902;2024-01-11T11:03:41;102519.59;;;-0.57;100.00
4836;BME280;66719;51.226;6.902;2024-01-11T11:06:11;102513.28;;;-0.62;100.00
4836;BME280;66719;51.226;6.902;2024-01-11T11:08:40;102505.31;;;-0.51;100.00
4836;BME280;66719;51.226;6.902;2024-01-11T11:11:07;102498.09;;;-0.42;100.00
4836;BME280;66719;51.226;6.902;2024-01-11T11:13:34;102484.34;;;-0.43;100.00
4836;BME280;66719;51.226;6.902;2024-01-11T11:16:01;102487.66;;;-0.29;100.00
4836;BME280;66719;51.226;6.902;2024-01-11T11:18:31;102492.41;;;-0.20;100.00
4836;BME280;66719;51.226;6.902;2024-01-11T11:21:00;102486.38;;;-0.21;100.00
4836;BME280;66719;51.226;6.902;2024-01-11T11:23:26;102489.53;;;-0.10;100.00
4836;BME280;66719;51.226;6.902;2024-01-11T11:25:54;102485.59;;;-0.04;100.00
4836;BME280;66719;51.226;6.902;2024-01-11T11:28:25;102486.09;;;0.06;100.00
4836;BME280;66719;51.226;6.902;2024-01-11T11:30:52;102472.75;;;0.13;100.00
4836;BME280;66719;51.226;6.902;2024-01-11T11:33:21;102477.69;;;0.26;99.84
4836;BME280;66719;51.226;6.902;2024-01-11T11:35:54;102490.28;;;0.36;99.81
4836;BME280;66719;51.226;6.902;2024-01-11T11:38:23;102481.47;;;0.49;98.16
4836;BME280;66719;51.226;6.902;2024-01-11T11:40:52;102474.22;;;0.58;97.09
4836;BME280;66719;51.226;6.902;2024-01-11T11:43:20;102479.03;;;0.52;95.60
4836;BME280;66719;51.226;6.902;2024-01-11T11:45:49;102478.25;;;0.53;91.91
4836;BME280;66719;51.226;6.902;2024-01-11T11:51:07;102481.97;;;0.76;85.04
4836;BME280;66719;51.226;6.902;2024-01-11T11:53:36;102480.66;;;0.84;82.79
4836;BME280;66719;51.226;6.902;2024-01-11T11:56:04;102474.34;;;0.95;81.71
4836;BME280;66719;51.226;6.902;2024-01-11T11:58:31;102477.09;;;0.98;81.83
4836;BME280;66719;51.226;6.902;2024-01-11T12:00:59;102469.91;;;0.93;81.31
4836;BME280;66719;51.226;6.902;2024-01-11T12:03:29;102472.88;;;1.00;80.50
4836;BME280;66719;51.226;6.902;2024-01-11T12:05:57;102467.53;;;0.96;80.01
4836;BME280;66719;51.226;6.902;2024-01-11T12:08:24;102467.09;;;1.04;78.78
4836;BME280;66719;51.226;6.902;2024-01-11T12:10:52;102457.78;;;1.08;78.64
4836;BME280;66719;51.226;6.902;2024-01-11T12:13:19;102455.56;;;1.16;77.32
4836;BME280;66719;51.226;6.902;2024-01-11T12:15:46;102444.75;;;1.23;76.76
4836;BME280;66719;51.226;6.902;2024-01-11T12:18:13;102440.09;;;1.33;76.82
4836;BME280;66719;51.226;6.902;2024-01-11T12:20:40;102431.28;;;1.48;75.29
4836;BME280;66719;51.226;6.902;2024-01-11T12:23:07;102428.16;;;1.55;73.67
4836;BME280;66719;51.226;6.902;2024-01-11T12:25:34;102432.25;;;1.50;74.42
4836;BME280;66719;51.226;6.902;2024-01-11T12:28:02;102430.22;;;1.62;75.11
4836;BME280;66719;51.226;6.902;2024-01-11T12:30:28;102434.22;;;1.55;75.66
4836;BME280;66719;51.226;6.902;2024-01-11T12:33:00;102448.75;;;1.53;76.83
4836;BME280;66719;51.226;6.902;2024-01-11T12:35:33;102441.88;;;1.54;76.28
4836;BME280;66719;51.226;6.902;2024-01-11T12:38:05;102435.97;;;1.74;76.26
4836;BME280;66719;51.226;6.902;2024-01-11T12:40:38;102439.31;;;1.73;77.37
4836;BME280;66719;51.226;6.902;2024-01-11T12:43:05;102454.56;;;1.67;79.23
4836;BME280;66719;51.226;6.902;2024-01-11T12:45:32;102448.94;;;1.76;79.28
4836;BME280;66719;51.226;6.902;2024-01-11T12:47:59;102459.09;;;1.73;79.14
4836;BME280;66719;51.226;6.902;2024-01-11T12:50:27;102475.34;;;1.70;78.99
4836;BME280;66719;51.226;6.902;2024-01-11T12:53:13;102467.47;;;1.67;79.77
4836;BME280;66719;51.226;6.902;2024-01-11T12:55:47;102469.75;;;1.61;79.47
4836;BME280;66719;51.226;6.902;2024-01-11T12:58:23;102475.50;;;1.55;79.19